Time;durP1;ratioP1;P1;durP2;ratioP2;P2;SDS_P1;SDS_P2;PMS_P1;PMS_P2;Temp;Humidity;BMP_temperature;BMP_pressure;BME280_temperature;BME280_humidity;BME280_pressure;Samples;Min_cycle;Max_cycle;Signal;HPM_P1;HPM_P2
2022/01/05 00:01:09;;;;;;;1.90;1.80;;;;;;;;;;5055010;28;20444;-69
2022/01/05 00:03:35;;;;;;;2.10;1.90;;;;;;;;;;5056960;28;20478;-70
2022/01/05 00:06:01;;;;;;;2.35;2.17;;;;;;;;;;5055518;28;20017;-61
2022/01/05 00:08:26;;;;;;;2.10;2.00;;;;;;;;;;5057006;28;20403;-61
2022/01/05 00:10:52;;;;;;;2.13;1.92;;;;;;;;;;5056807;28;20057;-62
2022/01/05 00:13:18;;;;;;;2.83;2.30;;;;;;;;;;5056159;28;20025;-62
2022/01/05 00:15:43;;;;;;;3.33;2.38;;;;;;;;;;5056688;28;20464;-61
2022/01/05 00:18:09;;;;;;;2.95;2.30;;;;;;;;;;5055961;28;20041;-62
2022/01/05 00:20:35;;;;;;;2.47;2.30;;;;;;;;;;5056475;28;20064;-62
2022/01/05 00:23:00;;;;;;;2.60;2.40;;;;;;;;;;5056229;28;20013;-61
2022/01/05 00:25:25;;;;;;;2.92;2.47;;;;;;;;;;5056144;28;20495;-62
2022/01/05 00:27:51;;;;;;;2.75;2.55;;;;;;;;;;5056276;28;20013;-61
2022/01/05 00:30:17;;;;;;;2.92;2.78;;;;;;;;;;5056370;28;20079;-61
2022/01/05 00:32:42;;;;;;;2.97;2.70;;;;;;;;;;5054938;28;20028;-61
2022/01/05 00:35:08;;;;;;;3.70;3.00;;;;;;;;;;5056129;28;20033;-61
2022/01/05 00:37:34;;;;;;;4.05;2.70;;;;;;;;;;5056012;28;20074;-61
2022/01/05 00:40:00;;;;;;;3.05;2.80;;;;;;;;;;5056147;28;20040;-61
2022/01/05 00:42:25;;;;;;;3.45;3.15;;;;;;;;;;5056201;28;20013;-61
2022/01/05 00:44:51;;;;;;;3.65;3.15;;;;;;;;;;5055799;28;20029;-61
2022/01/05 00:47:16;;;;;;;2.83;2.63;;;;;;;;;;5055928;28;20039;-61
2022/01/05 00:49:42;;;;;;;2.72;2.53;;;;;;;;;;5054886;28;20486;-62
2022/01/05 00:52:07;;;;;;;3.03;2.63;;;;;;;;;;5054857;28;20024;-62
2022/01/05 00:54:33;;;;;;;2.40;2.20;;;;;;;;;;5055809;28;20027;-62
2022/01/05 00:56:58;;;;;;;2.47;2.28;;;;;;;;;;5055765;28;20430;-62
2022/01/05 00:59:24;;;;;;;5.03;3.13;;;;;;;;;;5055638;28;20029;-62
2022/01/05 01:01:50;;;;;;;3.05;2.75;;;;;;;;;;5055895;28;20100;-62
2022/01/05 01:04:16;;;;;;;4.50;3.15;;;;;;;;;;5054292;28;20474;-62
2022/01/05 01:06:41;;;;;;;3.60;3.35;;;;;;;;;;5055724;28;20451;-62
2022/01/05 01:09:08;;;;;;;2.80;2.55;;;;;;;;;;5055650;28;20044;-61
2022/01/05 01:11:33;;;;;;;3.63;3.20;;;;;;;;;;5055081;28;20013;-61
2022/01/05 01:13:58;;;;;;;3.35;3.00;;;;;;;;;;5055145;28;20559;-61
2022/01/05 01:16:24;;;;;;;4.05;3.33;;;;;;;;;;5055440;28;20468;-62
2022/01/05 01:18:50;;;;;;;3.50;3.13;;;;;;;;;;5054799;28;20096;-62
2022/01/05 01:21:16;;;;;;;3.05;2.80;;;;;;;;;;5055398;28;20025;-62
2022/01/05 01:23:52;;;;;;;2.75;2.55;;;;;;;;;;5055399;28;20126;-61
2022/01/05 01:26:18;;;;;;;3.10;2.90;;;;;;;;;;5055154;28;20071;-62
2022/01/05 01:28:43;;;;;;;3.10;2.88;;;;;;;;;;5055135;28;20055;-62
2022/01/05 01:31:09;;;;;;;3.70;3.40;;;;;;;;;;5055172;28;20029;-61
2022/01/05 01:33:34;;;;;;;3.35;3.05;;;;;;;;;;5054968;28;20021;-71
2022/01/05 01:36:00;;;;;;;3.38;3.08;;;;;;;;;;5055014;28;20028;-71
2022/01/05 01:38:25;;;;;;;3.70;3.40;;;;;;;;;;5055017;28;20383;-71
2022/01/05 01:40:51;;;;;;;4.00;3.70;;;;;;;;;;5055331;28;20095;-71
2022/01/05 01:43:16;;;;;;;3.72;3.53;;;;;;;;;;5055001;28;20387;-71
2022/01/05 01:45:43;;;;;;;3.70;3.40;;;;;;;;;;5054679;28;20032;-71
2022/01/05 01:48:09;;;;;;;4.00;3.50;;;;;;;;;;5054774;28;20064;-70
2022/01/05 01:50:34;;;;;;;4.22;3.72;;;;;;;;;;5054812;28;20040;-69
2022/01/05 01:53:00;;;;;;;4.00;3.50;;;;;;;;;;5054724;28;20017;-70
2022/01/05 01:55:25;;;;;;;4.07;3.78;;;;;;;;;;5053658;28;20072;-69
2022/01/05 01:57:51;;;;;;;3.72;3.42;;;;;;;;;;5054852;28;20463;-69
2022/01/05 02:00:16;;;;;;;4.32;3.90;;;;;;;;;;5054648;28;20029;-71
2022/01/05 02:02:42;;;;;;;3.88;3.58;;;;;;;;;;5053222;28;20021;-70
2022/01/05 02:05:08;;;;;;;4.60;4.20;;;;;;;;;;5054391;28;20033;-69
2022/01/05 02:07:33;;;;;;;4.25;3.80;;;;;;;;;;5054627;28;20028;-69
2022/01/05 02:10:00;;;;;;;4.35;3.65;;;;;;;;;;5054347;28;20018;-69
2022/01/05 02:12:27;;;;;;;3.97;3.42;;;;;;;;;;5054301;28;20025;-69
2022/01/05 02:14:53;;;;;;;2.63;2.42;;;;;;;;;;5054269;28;20029;-69
2022/01/05 02:17:23;;;;;;;2.80;2.55;;;;;;;;;;5052927;28;20025;-70
2022/01/05 02:19:49;;;;;;;2.65;2.45;;;;;;;;;;5034449;28;20063;-69
2022/01/05 02:22:14;;;;;;;3.03;2.83;;;;;;;;;;5034523;28;20468;-70
2022/01/05 02:24:45;;;;;;;2.60;2.40;;;;;;;;;;5034349;28;20075;-70
2022/01/05 02:27:11;;;;;;;3.00;2.80;;;;;;;;;;5034284;28;20044;-70
2022/01/05 02:29:36;;;;;;;2.90;2.63;;;;;;;;;;5034134;28;20013;-70
2022/01/05 02:32:03;;;;;;;6.32;2.88;;;;;;;;;;5034283;28;20423;-70
2022/01/05 02:34:28;;;;;;;4.05;3.20;;;;;;;;;;5032771;28;20500;-69
2022/01/05 02:36:54;;;;;;;4.22;3.05;;;;;;;;;;5033788;28;20036;-69
2022/01/05 02:39:19;;;;;;;5.03;3.28;;;;;;;;;;5033648;28;20471;-70
2022/01/05 02:41:44;;;;;;;4.47;3.75;;;;;;;;;;5034043;28;20037;-69
2022/01/05 02:44:10;;;;;;;4.63;3.38;;;;;;;;;;5033800;28;20163;-70
2022/01/05 02:46:35;;;;;;;3.80;3.38;;;;;;;;;;5032448;28;20033;-70
2022/01/05 02:49:03;;;;;;;4.32;3.47;;;;;;;;;;5033868;28;20787;-70
2022/01/05 02:51:28;;;;;;;4.85;3.65;;;;;;;;;;5033857;28;20109;-70
2022/01/05 02:53:54;;;;;;;4.53;3.33;;;;;;;;;;5033799;28;20098;-71
2022/01/05 02:56:19;;;;;;;3.58;3.28;;;;;;;;;;5033233;28;20450;-70
2022/01/05 02:58:45;;;;;;;3.55;3.25;;;;;;;;;;5033692;28;20441;-70
2022/01/05 03:01:10;;;;;;;4.53;3.58;;;;;;;;;;5033518;28;20032;-69
2022/01/05 03:03:36;;;;;;;4.95;3.55;;;;;;;;;;5033562;28;20026;-69
2022/01/05 03:06:01;;;;;;;3.40;3.10;;;;;;;;;;5033536;28;20039;-70
2022/01/05 03:08:27;;;;;;;3.70;3.40;;;;;;;;;;5033499;28;20059;-71
2022/01/05 03:10:53;;;;;;;5.05;3.40;;;;;;;;;;5033537;28;20087;-70
2022/01/05 03:13:19;;;;;;;4.60;3.67;;;;;;;;;;5033492;28;20017;-71
2022/01/05 03:15:45;;;;;;;4.93;3.50;;;;;;;;;;5033577;28;20041;-71
2022/01/05 03:18:10;;;;;;;3.90;3.60;;;;;;;;;;5040303;28;20140;-70
2022/01/05 03:20:36;;;;;;;5.18;4.00;;;;;;;;;;5053373;28;20455;-70
2022/01/05 03:23:06;;;;;;;4.43;4.00;;;;;;;;;;5053488;28;20025;-71
2022/01/05 03:25:31;;;;;;;3.90;3.53;;;;;;;;;;5053380;28;20472;-70
2022/01/05 03:27:57;;;;;;;4.15;3.75;;;;;;;;;;5051932;28;20064;-70
2022/01/05 03:30:25;;;;;;;4.18;3.78;;;;;;;;;;5053142;28;20082;-69
2022/01/05 03:35:28;;;;;;;4.45;3.95;;;;;;;;;;5054449;28;20037;-69
2022/01/05 03:37:54;;;;;;;5.55;5.03;;;;;;;;;;5057202;28;20082;-70
2022/01/05 03:40:20;;;;;;;5.95;5.20;;;;;;;;;;5057357;28;20025;-69
2022/01/05 03:42:45;;;;;;;7.47;4.60;;;;;;;;;;5057549;28;20025;-69
2022/01/05 03:45:10;;;;;;;6.40;4.90;;;;;;;;;;5056807;28;20021;-69
2022/01/05 03:47:36;;;;;;;9.73;7.43;;;;;;;;;;5057105;28;20045;-70
2022/01/05 03:50:02;;;;;;;11.65;8.18;;;;;;;;;;5057227;28;20032;-70
2022/01/05 03:52:27;;;;;;;9.45;6.60;;;;;;;;;;5055472;28;20017;-71
2022/01/05 03:54:53;;;;;;;23.15;16.98;;;;;;;;;;5056866;28;20033;-70
2022/01/05 03:57:18;;;;;;;72.82;51.10;;;;;;;;;;5056814;28;20027;-69
2022/01/05 03:59:44;;;;;;;15.00;11.02;;;;;;;;;;5056883;28;20029;-69
2022/01/05 04:02:09;;;;;;;51.03;30.33;;;;;;;;;;5056843;28;20475;-70
2022/01/05 04:04:35;;;;;;;34.83;23.30;;;;;;;;;;5056745;28;20562;-69
2022/01/05 04:07:00;;;;;;;23.38;16.70;;;;;;;;;;5056690;28;20360;-70
2022/01/05 04:09:26;;;;;;;8.63;7.47;;;;;;;;;;5056847;28;20467;-69
2022/01/05 04:11:52;;;;;;;18.88;12.82;;;;;;;;;;5055486;28;20029;-69
2022/01/05 04:14:17;;;;;;;12.45;10.13;;;;;;;;;;5056589;28;20117;-69
2022/01/05 04:16:42;;;;;;;13.32;9.30;;;;;;;;;;5056732;28;20055;-69
2022/01/05 04:19:08;;;;;;;18.27;9.93;;;;;;;;;;5056021;28;20045;-69
2022/01/05 04:21:33;;;;;;;20.45;9.27;;;;;;;;;;5055169;28;20044;-70
2022/01/05 04:23:59;;;;;;;19.67;9.32;;;;;;;;;;5056607;28;20037;-69
2022/01/05 04:26:24;;;;;;;15.75;8.40;;;;;;;;;;5055321;28;20029;-69
2022/01/05 04:28:49;;;;;;;19.52;8.50;;;;;;;;;;5055252;28;20036;-69
2022/01/05 04:31:15;;;;;;;12.45;6.70;;;;;;;;;;5056315;28;20013;-69
2022/01/05 04:33:42;;;;;;;8.55;6.07;;;;;;;;;;5054873;28;20451;-69
2022/01/05 04:36:08;;;;;;;9.73;5.60;;;;;;;;;;5055975;28;20036;-69
2022/01/05 04:38:33;;;;;;;10.77;7.20;;;;;;;;;;5056390;28;20082;-68
2022/01/05 04:40:59;;;;;;;10.88;7.47;;;;;;;;;;5056216;28;20391;-69
2022/01/05 04:43:24;;;;;;;13.85;7.78;;;;;;;;;;5056137;28;20052;-70
2022/01/05 04:45:50;;;;;;;10.55;6.50;;;;;;;;;;5055827;28;20017;-69
2022/01/05 04:48:16;;;;;;;12.73;7.20;;;;;;;;;;5054752;28;20037;-70
2022/01/05 04:50:41;;;;;;;13.68;8.32;;;;;;;;;;5055981;28;20024;-61
2022/01/05 04:53:09;;;;;;;16.95;10.40;;;;;;;;;;5055858;28;20033;-70
2022/01/05 04:55:34;;;;;;;12.98;8.60;;;;;;;;;;5054782;28;20045;-60
2022/01/05 04:58:00;;;;;;;12.52;7.20;;;;;;;;;;5055803;28;20451;-60
2022/01/05 05:00:25;;;;;;;12.60;8.00;;;;;;;;;;5055648;28;20017;-61
2022/01/05 05:02:51;;;;;;;11.95;7.88;;;;;;;;;;5055809;28;20360;-69
2022/01/05 05:05:16;;;;;;;11.13;8.73;;;;;;;;;;5055654;28;20032;-68
2022/01/05 05:07:42;;;;;;;14.00;9.40;;;;;;;;;;5055718;28;20171;-61
2022/01/05 05:10:07;;;;;;;17.90;9.15;;;;;;;;;;5055733;28;20025;-68
2022/01/05 05:12:32;;;;;;;17.30;9.52;;;;;;;;;;5055683;28;20542;-69
2022/01/05 05:14:58;;;;;;;18.70;10.50;;;;;;;;;;5055689;28;20027;-69
2022/01/05 05:17:23;;;;;;;15.48;11.18;;;;;;;;;;5055216;28;20112;-61
2022/01/05 05:19:49;;;;;;;21.30;14.40;;;;;;;;;;5055493;28;20025;-61
2022/01/05 05:22:15;;;;;;;18.48;11.57;;;;;;;;;;5054203;28;20025;-61
2022/01/05 05:24:40;;;;;;;19.25;14.93;;;;;;;;;;5055416;28;20028;-61
2022/01/05 05:27:06;;;;;;;16.05;10.38;;;;;;;;;;5055353;28;20483;-69
2022/01/05 05:29:31;;;;;;;11.50;8.45;;;;;;;;;;5055421;28;20086;-69
2022/01/05 05:31:57;;;;;;;13.32;8.02;;;;;;;;;;5055377;28;20059;-69
2022/01/05 05:34:23;;;;;;;11.13;8.18;;;;;;;;;;5055063;28;20020;-68
2022/01/05 05:36:48;;;;;;;10.98;8.25;;;;;;;;;;5055076;28;20060;-69
2022/01/05 05:39:14;;;;;;;15.00;12.18;;;;;;;;;;5055023;28;20057;-69
2022/01/05 05:41:39;;;;;;;16.50;12.50;;;;;;;;;;5053556;28;20037;-69
2022/01/05 05:44:05;;;;;;;16.85;12.43;;;;;;;;;;5055261;28;20116;-69
2022/01/05 05:46:31;;;;;;;13.20;9.93;;;;;;;;;;5053711;28;20056;-69
2022/01/05 05:48:56;;;;;;;14.85;10.20;;;;;;;;;;5054671;28;20103;-61
2022/01/05 05:51:22;;;;;;;17.55;9.70;;;;;;;;;;5054625;28;20029;-61
2022/01/05 05:53:47;;;;;;;17.15;10.80;;;;;;;;;;5054887;28;20070;-61
2022/01/05 05:56:13;;;;;;;15.68;9.80;;;;;;;;;;5054801;28;20036;-61
2022/01/05 05:58:38;;;;;;;99.93;60.03;;;;;;;;;;5054482;28;20021;-69
2022/01/05 06:01:03;;;;;;;20.60;16.80;;;;;;;;;;5053692;28;20028;-69
2022/01/05 06:03:29;;;;;;;38.55;28.20;;;;;;;;;;5053562;28;20024;-68
2022/01/05 06:05:54;;;;;;;50.67;34.70;;;;;;;;;;5054030;28;20036;-69
2022/01/05 06:08:20;;;;;;;25.30;15.95;;;;;;;;;;5054044;28;20438;-68
2022/01/05 06:10:45;;;;;;;15.88;11.68;;;;;;;;;;5054183;28;20036;-68
2022/01/05 06:13:11;;;;;;;16.00;11.15;;;;;;;;;;5054318;28;20021;-69
2022/01/05 06:15:36;;;;;;;13.38;10.80;;;;;;;;;;5054108;28;20089;-69
2022/01/05 06:18:02;;;;;;;18.90;15.55;;;;;;;;;;5053486;28;20041;-69
2022/01/05 06:20:28;;;;;;;19.58;13.82;;;;;;;;;;5052687;28;20056;-70
2022/01/05 06:22:53;;;;;;;12.27;10.15;;;;;;;;;;5053962;28;20040;-70
2022/01/05 06:25:19;;;;;;;17.38;11.25;;;;;;;;;;5053792;28;20379;-70
2022/01/05 06:27:44;;;;;;;18.35;12.63;;;;;;;;;;5054043;28;20009;-70
2022/01/05 06:30:10;;;;;;;18.35;13.57;;;;;;;;;;5054001;28;20029;-68
2022/01/05 06:32:40;;;;;;;16.85;11.13;;;;;;;;;;5054084;28;20436;-69
2022/01/05 06:35:06;;;;;;;22.08;13.48;;;;;;;;;;5053863;28;20485;-69
2022/01/05 06:37:31;;;;;;;35.67;22.50;;;;;;;;;;5053834;28;20068;-68
2022/01/05 06:39:57;;;;;;;104.03;68.55;;;;;;;;;;5054021;28;20036;-69
2022/01/05 06:42:22;;;;;;;31.48;20.88;;;;;;;;;;5053846;28;20021;-69
2022/01/05 06:44:48;;;;;;;20.60;12.23;;;;;;;;;;5053901;28;20079;-69
2022/01/05 06:47:13;;;;;;;18.10;10.85;;;;;;;;;;5053948;28;20367;-69
2022/01/05 06:49:38;;;;;;;19.42;12.82;;;;;;;;;;5053504;28;20029;-69
2022/01/05 06:52:04;;;;;;;21.50;13.75;;;;;;;;;;5053551;28;20020;-70
2022/01/05 06:54:30;;;;;;;26.73;16.58;;;;;;;;;;5052562;28;20087;-70
2022/01/05 06:56:56;;;;;;;26.48;14.57;;;;;;;;;;5053627;28;20460;-70
2022/01/05 06:59:21;;;;;;;26.90;15.80;;;;;;;;;;5053786;28;20029;-69
2022/01/05 07:01:47;;;;;;;23.85;16.08;;;;;;;;;;5053448;28;20033;-69
2022/01/05 07:04:13;;;;;;;21.95;15.35;;;;;;;;;;5053422;28;20390;-69
2022/01/05 07:06:38;;;;;;;22.50;14.40;;;;;;;;;;5053408;28;20095;-69
2022/01/05 07:09:05;;;;;;;19.25;12.98;;;;;;;;;;5053242;28;20391;-69
2022/01/05 07:11:31;;;;;;;18.83;12.73;;;;;;;;;;5052766;28;20028;-68
2022/01/05 07:13:57;;;;;;;19.73;12.57;;;;;;;;;;5053611;28;20071;-69
2022/01/05 07:16:23;;;;;;;16.95;12.40;;;;;;;;;;5053434;28;20029;-69
2022/01/05 07:18:49;;;;;;;19.88;13.57;;;;;;;;;;5064628;28;20044;-69
2022/01/05 07:21:14;;;;;;;18.27;13.25;;;;;;;;;;5053610;28;20119;-69
2022/01/05 07:23:40;;;;;;;17.50;12.55;;;;;;;;;;5053255;28;20021;-69
2022/01/05 07:26:05;;;;;;;14.50;11.43;;;;;;;;;;5053015;28;20127;-69
2022/01/05 07:28:31;;;;;;;14.40;11.63;;;;;;;;;;5053137;28;20033;-69
2022/01/05 07:30:56;;;;;;;15.95;12.57;;;;;;;;;;5052631;28;20036;-69
2022/01/05 07:33:21;;;;;;;26.40;19.45;;;;;;;;;;5053118;28;20032;-69
2022/01/05 07:35:47;;;;;;;19.08;16.40;;;;;;;;;;5053424;28;20033;-69
2022/01/05 07:38:13;;;;;;;37.38;30.83;;;;;;;;;;5053241;28;20519;-69
2022/01/05 07:40:38;;;;;;;37.78;28.67;;;;;;;;;;5053225;28;20505;-69
2022/01/05 07:43:06;;;;;;;59.22;38.30;;;;;;;;;;5051935;28;20414;-69
2022/01/05 07:45:33;;;;;;;39.08;25.17;;;;;;;;;;5053080;28;20040;-69
2022/01/05 07:47:59;;;;;;;54.65;35.13;;;;;;;;;;5053356;28;20056;-69
2022/01/05 07:50:25;;;;;;;71.07;49.97;;;;;;;;;;5052956;28;20068;-69
2022/01/05 07:52:51;;;;;;;41.55;30.23;;;;;;;;;;5053034;28;20025;-69
2022/01/05 07:55:16;;;;;;;18.00;12.65;;;;;;;;;;5053154;28;20028;-70
2022/01/05 07:57:42;;;;;;;19.05;12.95;;;;;;;;;;5053169;28;20440;-70
2022/01/05 08:00:08;;;;;;;36.13;27.02;;;;;;;;;;5053030;28;20454;-69
2022/01/05 08:02:34;;;;;;;18.85;15.07;;;;;;;;;;5052912;28;20024;-70
2022/01/05 08:04:59;;;;;;;18.40;13.00;;;;;;;;;;5052995;28;20040;-70
2022/01/05 08:07:25;;;;;;;19.52;13.85;;;;;;;;;;5053050;28;20363;-70
2022/01/05 08:09:50;;;;;;;21.40;14.32;;;;;;;;;;5053099;28;20356;-70
2022/01/05 08:12:16;;;;;;;18.05;13.63;;;;;;;;;;5051696;28;20440;-69
2022/01/05 08:14:41;;;;;;;19.15;13.43;;;;;;;;;;5052939;28;20025;-68
2022/01/05 08:17:07;;;;;;;17.90;12.80;;;;;;;;;;5053084;28;20553;-68
2022/01/05 08:19:32;;;;;;;13.60;11.65;;;;;;;;;;5052209;28;20049;-68
2022/01/05 08:21:58;;;;;;;12.85;9.68;;;;;;;;;;5054556;28;20451;-68
2022/01/05 08:24:23;;;;;;;12.10;9.85;;;;;;;;;;5056041;28;20028;-69
2022/01/05 08:26:49;;;;;;;13.73;10.90;;;;;;;;;;5056537;28;20041;-68
2022/01/05 08:29:15;;;;;;;20.25;12.27;;;;;;;;;;5056653;28;20076;-68
2022/01/05 08:31:40;;;;;;;13.10;9.90;;;;;;;;;;5056318;28;20029;-68
2022/01/05 08:34:05;;;;;;;10.82;8.77;;;;;;;;;;5056216;28;20066;-68
2022/01/05 08:36:31;;;;;;;12.25;9.75;;;;;;;;;;5056209;28;20031;-68
2022/01/05 08:38:56;;;;;;;17.45;12.63;;;;;;;;;;5056545;28;20434;-68
2022/01/05 08:41:22;;;;;;;16.35;11.98;;;;;;;;;;5056344;28;20032;-68
2022/01/05 08:43:47;;;;;;;16.55;10.88;;;;;;;;;;5056462;28;20111;-68
2022/01/05 08:46:13;;;;;;;15.73;11.32;;;;;;;;;;5055999;28;20475;-68
2022/01/05 08:48:40;;;;;;;16.67;10.85;;;;;;;;;;5056055;28;20028;-68
2022/01/05 08:51:06;;;;;;;11.90;9.98;;;;;;;;;;5056030;28;20028;-68
2022/01/05 08:53:31;;;;;;;12.50;9.13;;;;;;;;;;5055902;28;20480;-68
2022/01/05 08:55:57;;;;;;;11.25;8.98;;;;;;;;;;5055969;28;20040;-68
2022/01/05 08:58:22;;;;;;;11.95;10.20;;;;;;;;;;5056037;28;20017;-69
2022/01/05 09:00:48;;;;;;;13.10;11.13;;;;;;;;;;5055699;28;20471;-69
2022/01/05 09:03:14;;;;;;;17.02;11.25;;;;;;;;;;5055503;28;20140;-68
2022/01/05 09:05:40;;;;;;;17.52;13.25;;;;;;;;;;5055678;28;20112;-69
2022/01/05 09:08:05;;;;;;;19.10;13.43;;;;;;;;;;5055846;28;20515;-68
2022/01/05 09:10:31;;;;;;;17.90;13.07;;;;;;;;;;5055639;28;20025;-68
2022/01/05 09:12:56;;;;;;;19.92;13.30;;;;;;;;;;5055807;28;20040;-68
2022/01/05 09:15:22;;;;;;;20.67;13.38;;;;;;;;;;5055615;28;20029;-68
2022/01/05 09:17:48;;;;;;;16.83;12.93;;;;;;;;;;5055156;28;20100;-68
2022/01/05 09:20:13;;;;;;;18.05;13.00;;;;;;;;;;5055186;28;20045;-68
2022/01/05 09:22:39;;;;;;;16.25;11.32;;;;;;;;;;5055411;28;20033;-68
2022/01/05 09:25:06;;;;;;;15.93;11.05;;;;;;;;;;5055194;28;20410;-68
2022/01/05 09:27:32;;;;;;;19.73;13.30;;;;;;;;;;5055302;28;20383;-68
2022/01/05 09:29:57;;;;;;;10.80;8.18;;;;;;;;;;5055222;28;20013;-68
2022/01/05 09:32:23;;;;;;;9.68;6.97;;;;;;;;;;5054898;28;20479;-68
2022/01/05 09:34:50;;;;;;;13.82;8.98;;;;;;;;;;5054894;28;20017;-68
2022/01/05 09:37:23;;;;;;;8.07;6.97;;;;;;;;;;5055634;28;20036;-68
2022/01/05 09:42:33;;;;;;;15.05;8.77;;;;;;;;;;5055197;28;20372;-69
2022/01/05 09:44:59;;;;;;;17.45;10.93;;;;;;;;;;5055408;28;20112;-68
2022/01/05 09:47:31;;;;;;;19.98;11.73;;;;;;;;;;5055104;28;20033;-68
2022/01/05 09:50:04;;;;;;;45.42;23.80;;;;;;;;;;5054844;28;20036;-68
2022/01/05 09:52:33;;;;;;;38.55;20.35;;;;;;;;;;5054990;28;20395;-68
2022/01/05 09:54:58;;;;;;;23.33;14.95;;;;;;;;;;5054942;28;20359;-69
2022/01/05 09:57:24;;;;;;;25.02;13.20;;;;;;;;;;5054744;28;20040;-68
2022/01/05 09:59:50;;;;;;;14.63;10.02;;;;;;;;;;5054548;28;20374;-69
2022/01/05 10:02:17;;;;;;;24.92;13.68;;;;;;;;;;5054725;28;20037;-69
2022/01/05 10:04:43;;;;;;;29.38;15.95;;;;;;;;;;5054717;28;20074;-69
2022/01/05 10:07:09;;;;;;;25.02;15.30;;;;;;;;;;5054632;28;20033;-69
2022/01/05 10:09:38;;;;;;;21.45;12.55;;;;;;;;;;5054478;28;20024;-69
2022/01/05 10:12:04;;;;;;;18.80;12.73;;;;;;;;;;5054229;28;20041;-69
2022/01/05 10:14:30;;;;;;;31.35;19.75;;;;;;;;;;5053286;28;20430;-69
2022/01/05 10:17:19;;;;;;;30.20;17.13;;;;;;;;;;5054522;28;20033;-69
2022/01/05 10:19:45;;;;;;;39.13;24.95;;;;;;;;;;5050586;28;20033;-69
2022/01/05 10:22:31;;;;;;;34.78;21.25;;;;;;;;;;5054302;28;20059;-69
2022/01/05 10:24:57;;;;;;;9.82;6.80;;;;;;;;;;5054357;28;20098;-69
2022/01/05 10:27:25;;;;;;;12.77;8.27;;;;;;;;;;5054381;28;20457;-69
2022/01/05 10:29:54;;;;;;;17.55;11.50;;;;;;;;;;5053900;28;20495;-69
2022/01/05 10:32:20;;;;;;;21.55;14.27;;;;;;;;;;5053915;28;20082;-69
2022/01/05 10:35:02;;;;;;;21.02;13.18;;;;;;;;;;5053776;28;20444;-70
2022/01/05 10:37:28;;;;;;;26.83;17.95;;;;;;;;;;5054102;28;20091;-63
2022/01/05 10:40:22;;;;;;;20.95;13.57;;;;;;;;;;5054295;28;20407;-62
2022/01/05 10:42:51;;;;;;;14.50;10.65;;;;;;;;;;5049214;28;20045;-63
2022/01/05 10:45:18;;;;;;;9.10;6.80;;;;;;;;;;5053808;28;20024;-62
2022/01/05 10:48:00;;;;;;;12.38;8.15;;;;;;;;;;5053955;28;20074;-62
2022/01/05 10:50:26;;;;;;;9.07;6.72;;;;;;;;;;5053726;28;20033;-62
2022/01/05 10:52:54;;;;;;;7.65;6.18;;;;;;;;;;5053591;28;20352;-62
2022/01/05 10:55:20;;;;;;;10.10;7.50;;;;;;;;;;5053602;28;20037;-62
2022/01/05 10:57:58;;;;;;;14.63;9.80;;;;;;;;;;5053619;28;20024;-62
2022/01/05 11:00:34;;;;;;;9.93;6.55;;;;;;;;;;5053910;28;20471;-62
2022/01/05 11:03:01;;;;;;;11.07;7.45;;;;;;;;;;5053698;28;20475;-63
2022/01/05 11:05:26;;;;;;;11.93;9.30;;;;;;;;;;5053491;28;20017;-62
2022/01/05 11:08:05;;;;;;;9.93;7.05;;;;;;;;;;5053663;28;20029;-62
2022/01/05 11:10:30;;;;;;;8.98;7.00;;;;;;;;;;5053871;28;20172;-62
2022/01/05 11:12:56;;;;;;;8.57;6.75;;;;;;;;;;5053637;28;20070;-62
2022/01/05 11:15:24;;;;;;;7.65;6.65;;;;;;;;;;5053456;28;20055;-62
2022/01/05 11:18:09;;;;;;;8.68;6.78;;;;;;;;;;5052439;28;20021;-62
2022/01/05 11:20:36;;;;;;;10.68;7.25;;;;;;;;;;5053169;28;20044;-62
2022/01/05 11:23:02;;;;;;;9.82;7.75;;;;;;;;;;5053114;28;20040;-64
2022/01/05 11:25:27;;;;;;;11.27;7.20;;;;;;;;;;5053290;28;20037;-64
2022/01/05 11:27:53;;;;;;;9.70;7.50;;;;;;;;;;5053438;28;20025;-64
2022/01/05 11:30:19;;;;;;;9.70;6.68;;;;;;;;;;5053358;28;20032;-64
2022/01/05 11:32:45;;;;;;;7.78;6.40;;;;;;;;;;5053315;28;20025;-64
2022/01/05 11:35:10;;;;;;;8.68;6.22;;;;;;;;;;5053026;28;20095;-64
2022/01/05 11:37:35;;;;;;;8.95;6.00;;;;;;;;;;5052909;28;20025;-64
2022/01/05 11:40:03;;;;;;;9.40;5.80;;;;;;;;;;5053045;28;20403;-64
2022/01/05 11:42:33;;;;;;;4.15;3.80;;;;;;;;;;5053389;28;20020;-64
2022/01/05 11:44:59;;;;;;;8.68;5.40;;;;;;;;;;5053237;28;20443;-64
2022/01/05 11:47:29;;;;;;;8.43;6.43;;;;;;;;;;5053138;28;20135;-64
2022/01/05 11:50:15;;;;;;;5.97;4.85;;;;;;;;;;5052940;28;20033;-64
2022/01/05 11:52:55;;;;;;;9.00;5.90;;;;;;;;;;5049001;28;20055;-64
2022/01/05 11:55:21;;;;;;;;;;;;;;;;;;5053389;28;20060;-64
2022/01/05 11:58:27;;;;;;;9.63;6.32;;;;;;;;;;5056296;28;20331;-64
2022/01/05 12:01:11;;;;;;;6.70;4.90;;;;;;;;;;5014912;28;20088;-64
2022/01/05 12:03:46;;;;;;;6.72;4.82;;;;;;;;;;4998736;28;20037;-64
2022/01/05 12:06:11;;;;;;;7.07;5.15;;;;;;;;;;5042761;28;20059;-64
2022/01/05 12:08:44;;;;;;;6.75;5.07;;;;;;;;;;5056916;28;20025;-64
2022/01/05 12:11:29;;;;;;;6.78;4.75;;;;;;;;;;5056722;28;20502;-64
2022/01/05 12:13:55;;;;;;;7.82;5.57;;;;;;;;;;5056941;28;20029;-64
2022/01/05 12:16:20;;;;;;;5.63;4.60;;;;;;;;;;5057036;28;20356;-64
2022/01/05 12:19:02;;;;;;;5.95;4.45;;;;;;;;;;5056148;28;20033;-64
2022/01/05 12:21:47;;;;;;;6.57;4.85;;;;;;;;;;5055606;28;20111;-64
2022/01/05 12:24:13;;;;;;;6.57;4.97;;;;;;;;;;5054090;28;20060;-64
2022/01/05 12:26:39;;;;;;;5.72;5.15;;;;;;;;;;5054114;28;20021;-64
2022/01/05 12:29:05;;;;;;;7.05;4.95;;;;;;;;;;5055252;28;20029;-64
2022/01/05 12:31:50;;;;;;;6.82;5.03;;;;;;;;;;5055020;28;20356;-64
2022/01/05 12:34:35;;;;;;;8.50;5.47;;;;;;;;;;5054933;28;20029;-64
2022/01/05 12:37:01;;;;;;;6.45;5.07;;;;;;;;;;5032775;28;20753;-64
2022/01/05 12:39:59;;;;;;;8.30;5.53;;;;;;;;;;5054910;28;20025;-64
2022/01/05 12:42:25;;;;;;;8.50;5.90;;;;;;;;;;5042566;28;20094;-64
2022/01/05 12:44:50;;;;;;;9.98;6.32;;;;;;;;;;5055120;28;20025;-64
2022/01/05 12:47:33;;;;;;;7.35;5.60;;;;;;;;;;5055028;28;20504;-64
2022/01/05 12:50:15;;;;;;;5.75;4.72;;;;;;;;;;5055324;28;20036;-64
2022/01/05 12:52:41;;;;;;;6.38;4.72;;;;;;;;;;5054979;28;20416;-64
2022/01/05 12:55:07;;;;;;;6.13;4.53;;;;;;;;;;5054847;28;20051;-64
2022/01/05 12:57:32;;;;;;;7.10;4.72;;;;;;;;;;5054565;28;20033;-64
2022/01/05 12:59:59;;;;;;;7.70;5.13;;;;;;;;;;5054813;28;20391;-64
2022/01/05 13:02:29;;;;;;;8.52;5.40;;;;;;;;;;5054665;28;20037;-64
2022/01/05 13:04:57;;;;;;;5.75;5.00;;;;;;;;;;5054605;28;20033;-64
2022/01/05 13:07:23;;;;;;;6.00;4.97;;;;;;;;;;5053895;28;20447;-64
2022/01/05 13:09:53;;;;;;;7.40;5.38;;;;;;;;;;5054042;28;20598;-64
2022/01/05 13:12:21;;;;;;;6.45;5.10;;;;;;;;;;5054951;28;20025;-64
2022/01/05 13:14:50;;;;;;;5.03;4.13;;;;;;;;;;5054662;28;20105;-64
2022/01/05 13:17:16;;;;;;;7.28;5.45;;;;;;;;;;5054777;28;20127;-64
2022/01/05 13:19:51;;;;;;;10.05;5.55;;;;;;;;;;5009032;28;1272435;-64
2022/01/05 13:22:21;;;;;;;5.97;3.80;;;;;;;;;;5055360;28;20071;-64
2022/01/05 13:24:52;;;;;;;6.18;4.78;;;;;;;;;;5055585;28;20068;-63
2022/01/05 13:27:19;;;;;;;10.32;5.93;;;;;;;;;;5055371;28;20131;-64
2022/01/05 13:29:46;;;;;;;10.75;7.57;;;;;;;;;;5055394;28;20104;-64
2022/01/05 13:32:13;;;;;;;14.98;9.73;;;;;;;;;;5055265;28;20029;-64
2022/01/05 13:34:46;;;;;;;13.10;9.25;;;;;;;;;;5055300;28;20021;-63
2022/01/05 13:37:12;;;;;;;13.15;8.23;;;;;;;;;;5055284;28;20025;-63
2022/01/05 13:39:39;;;;;;;11.02;8.13;;;;;;;;;;5055330;28;20079;-64
2022/01/05 13:42:05;;;;;;;10.50;8.20;;;;;;;;;;5055106;28;20112;-64
2022/01/05 13:44:31;;;;;;;13.27;8.07;;;;;;;;;;5055232;28;20108;-64
2022/01/05 13:46:57;;;;;;;10.60;7.88;;;;;;;;;;5055017;28;20043;-64
2022/01/05 13:49:22;;;;;;;9.98;8.38;;;;;;;;;;5054931;28;20017;-64
2022/01/05 13:52:04;;;;;;;14.23;8.40;;;;;;;;;;5054784;28;20021;-64
2022/01/05 13:54:31;;;;;;;11.35;8.60;;;;;;;;;;5054920;28;20029;-64
2022/01/05 13:56:56;;;;;;;13.73;8.70;;;;;;;;;;5054804;28;20100;-64
2022/01/05 13:59:21;;;;;;;14.80;8.85;;;;;;;;;;5054740;28;20115;-64
2022/01/05 14:01:57;;;;;;;12.52;9.35;;;;;;;;;;5054939;28;20094;-64
2022/01/05 14:04:22;;;;;;;12.20;9.02;;;;;;;;;;5054815;28;20037;-64
2022/01/05 14:06:57;;;;;;;12.02;9.25;;;;;;;;;;5054523;28;20478;-64
2022/01/05 14:09:28;;;;;;;15.23;9.90;;;;;;;;;;5054675;28;20388;-64
2022/01/05 14:11:57;;;;;;;10.15;7.40;;;;;;;;;;5054941;28;20024;-64
2022/01/05 14:14:23;;;;;;;8.73;6.47;;;;;;;;;;5054530;28;20029;-64
2022/01/05 14:16:48;;;;;;;11.15;7.32;;;;;;;;;;5054506;28;20468;-64
2022/01/05 14:19:23;;;;;;;11.25;8.00;;;;;;;;;;5053650;28;20045;-64
2022/01/05 14:21:49;;;;;;;12.77;8.57;;;;;;;;;;5054332;28;20037;-64
2022/01/05 14:24:15;;;;;;;13.55;9.13;;;;;;;;;;5054387;28;20024;-64
2022/01/05 14:26:40;;;;;;;12.63;8.68;;;;;;;;;;5052731;28;20036;-64
2022/01/05 14:29:08;;;;;;;11.05;7.40;;;;;;;;;;5054043;28;20085;-64
2022/01/05 14:31:38;;;;;;;11.15;8.73;;;;;;;;;;5053729;28;20033;-64
2022/01/05 14:34:04;;;;;;;11.98;8.30;;;;;;;;;;5053007;28;20037;-64
2022/01/05 14:36:39;;;;;;;10.40;8.30;;;;;;;;;;5053311;28;20032;-65